Willard, WI (54493)

2:51 AM CDT on October 31, 2014 (GMT -0500)
Backyard, N. Andrews Ave | Change Station
CLOSE
Current Station
Personal Weather Station
Location: Greenwood, WI
Elevation: 1161 ft
Nearby Weather Stations
Active Advisory: Special Statement

Elev 1161 ft 44.77 °N, 90.60 °W | Updated 4 seconds ago

Overcast
Overcast
31.6 °F
Feels Like 22 °F
N
13.4
Wind Variable Wind from North
Gusts 15.9 mph

Today
High -- | Low -- °F
--% Chance of Precip.
Yesterday
High -- | Low -- °F
Precip. -- in
7:39 AM 5:53 PM
First Quarter, 52% visible
Pressure 30.16 in
Visibility 3.0 miles
Clouds Scattered Clouds 1600 ft
Overcast 2400 ft
Windchill 22 °F
Dew Point 24 °F
Humidity 73%
Rainfall 0.00 in
Snow Depth Not available.
UV 0 out of 12
Pollen .20 out of 12
Air Quality Not available.
Flu Activity Not available.
SPECI KMFI 310711Z AUTO 33023G30KT 3SM -SN BR SCT016 OVC024 M01/M03 A3016 RMK AO2 PK WND 33030/0709 P0000 T10061028

More Conditions Fewer Conditions

Pressure 30.16 in
Visibility 3.0 miles
Clouds Scattered Clouds 1600 ft
Overcast 2400 ft
Windchill 22 °F
Dew Point 24 °F
Humidity 73%
Rainfall 0.00 in
Snow Depth Not available.
UV 0 out of 12
Pollen .20 out of 12
Air Quality Not available.
Flu Activity Not available.
SPECI KMFI 310711Z AUTO 33023G30KT 3SM -SN BR SCT016 OVC024 M01/M03 A3016 RMK AO2 PK WND 33030/0709 P0000 T10061028

More Conditions Fewer Conditions

10-Day Weather Forecast

Almanac

Astronomy

Oct. 31, 2014 Rise Set
Actual Time
Civil Twilight
Nautical Twilight
Astronomical Twilight
Moon
Length of Visible Light
Length of Day
Tomorrow will be .
, % of the Moon is Illuminated

Today's Extremes

State Highs State Lows

Community

WunderPhotos

Upload Photos

1,766,573 photos uploaded!

WunderBlogs® & News

Nearby

Air Quality

  Air Quality AQ Index Pollutant
Not available.

Snow Depth

Station Depth Elevation

Earthquake Activity

City Distance Mag. Time & Date
Minimum magnitude displayed is 2.5.

Coastal Water Temperatures

Place Temperature

Nearby Weather Stations